Flight Track Log - Related Links

Times and Time Zones

All times are in EDT time to prevent confusion due to time zone crossing. See the AMF294 flight status page for this flight to view local times or setup timezone preferences in your user account.

Time Position Orientation Groundspeed Altitude Reporting Facility
EDT Latitude Longitude Course Direction KTS MPH feet Rate Location/Type
Tue 05:45:33 PM 38.5000 -121.5667 237° Southwest 130 150 2,400  Level Northern Cal TRACON
Tue 05:46:33 PM 38.4500 -121.5667 180° South 163 188 3,300 1,050 Climbing Northern Cal TRACON
Tue 05:47:33 PM 38.4167 -121.5333 142° Southeast 162 186 4,500 1,150 Climbing Northern Cal TRACON
Tue 05:48:33 PM 38.3833 -121.4833 130° Southeast 159 183 5,600 1,150 Climbing Northern Cal TRACON
Tue 05:49:33 PM 38.3667 -121.4500 123° Southeast 152 175 6,800 1,048 Climbing Northern Cal TRACON
Tue 05:50:39 PM 38.3333 -121.4167 142° Southeast 155 178 7,800 857 Climbing Northern Cal TRACON
Tue 05:51:39 PM 38.2833 -121.3667 142° Southeast 165 190 8,600 600 Climbing Northern Cal TRACON
Tue 05:52:39 PM 38.2500 -121.3333 142° Southeast 178 205 9,000 200 Climbing Northern Cal TRACON
Tue 05:53:39 PM 38.2167 -121.2833 130° Southeast 184 212 9,000  Level Northern Cal TRACON
Tue 05:54:39 PM 38.1833 -121.2500 142° Southeast 172 198 9,000  Level Northern Cal TRACON
Tue 05:55:33 PM 38.1500 -121.2167 142° Southeast 178 205 9,000  Level Northern Cal TRACON
Tue 05:56:39 PM 38.1000 -121.1667 142° Southeast 180 207 9,000  Level Northern Cal TRACON
Tue 05:57:33 PM 38.0667 -121.1333 142° Southeast 183 211 9,000  Level Northern Cal TRACON
Tue 05:58:28 PM 38.0419 -121.0889 125° Southeast 182 209 9,000  Level Oakland Center
Tue 05:59:29 PM 38.0061 -121.0458 137° Southeast 179 206 9,000  Level Oakland Center
Tue 06:00:30 PM 37.9864 -120.9917 115° Southeast 171 197 9,000  Level Oakland Center
Tue 06:01:31 PM 37.9667 -120.9361 114° Southeast 172 198 9,000  Level Oakland Center
Tue 06:02:32 PM 37.9367 -120.8894 129° Southeast 178 205 9,000  Level Oakland Center
Tue 06:03:33 PM 37.8981 -120.8519 143° Southeast 175 201 9,000  Level Oakland Center
Tue 06:04:35 PM 37.8533 -120.8056 141° Southeast 173 199 9,000  Level Oakland Center
Tue 06:05:36 PM 37.8156 -120.7667 141° Southeast 175 201 9,000  Level Oakland Center
Tue 06:06:34 PM 37.7833 -120.7333 141° Southeast 174 200 9,000  Level Northern Cal TRACON
Tue 06:07:34 PM 37.7333 -120.7000 152° Southeast 174 200 9,000  Level Northern Cal TRACON
Tue 06:08:34 PM 37.7000 -120.6500 130° Southeast 176 203 9,000  Level Northern Cal TRACON
Tue 06:09:34 PM 37.6667 -120.6167 142° Southeast 174 200 9,000  Level Northern Cal TRACON
Tue 06:10:34 PM 37.6333 -120.5833 142° Southeast 175 201 9,000  Level Northern Cal TRACON
Tue 06:11:34 PM 37.6000 -120.5333 130° Southeast 175 201 9,000  Level Northern Cal TRACON
Tue 06:12:40 PM 37.5500 -120.5000 152° Southeast 175 201 9,000  Level Northern Cal TRACON
Tue 06:13:34 PM 37.5167 -120.4500 130° Southeast 175 201 9,000  Level Northern Cal TRACON
Tue 06:14:34 PM 37.4833 -120.4167 142° Southeast 175 201 9,000  Level Northern Cal TRACON
Tue 06:15:34 PM 37.4500 -120.3833 142° Southeast 176 203 9,000  Level Northern Cal TRACON
Tue 06:16:34 PM 37.4000 -120.3333 142° Southeast 175 201 9,000 -80 Level Northern Cal TRACON
Tue 06:16:49 PM 37.3981 -120.3289 119° Southeast 174 200 8,900 -79 Descending Oakland Center
Tue 06:17:50 PM 37.3608 -120.2908 141° Southeast 173 199 8,900  Level Oakland Center
Tue 06:18:51 PM 37.3206 -120.2578 147° Southeast 173 199 8,900  Level Oakland Center
Tue 06:19:52 PM 37.2831 -120.2206 142° Southeast 171 197 8,900  Level Oakland Center
Tue 06:20:54 PM 37.2467 -120.1825 140° Southeast 171 197 8,900  Level Oakland Center
Tue 06:21:55 PM 37.2100 -120.1458 141° Southeast 169 194 8,900  Level Oakland Center
Tue 06:22:56 PM 37.1728 -120.1106 143° Southeast 167 192 8,900  Level Oakland Center
Tue 06:23:57 PM 37.1300 -120.0681 142° Southeast 172 198 8,900  Level Oakland Center
Tue 06:24:58 PM 37.0942 -120.0317 141° Southeast 170 196 8,900  Level Oakland Center
Tue 06:25:59 PM 37.0575 -119.9939 141° Southeast 168 193 8,900  Level Oakland Center
Tue 06:27:01 PM 37.0200 -119.9569 142° Southeast 171 197 8,900  Level Oakland Center
Tue 06:28:02 PM 36.9822 -119.9197 142° Southeast 172 198 8,900  Level Oakland Center
Tue 06:29:03 PM 36.9453 -119.8828 141° Southeast 170 196 8,900  Level Oakland Center
Tue 06:30:04 PM 36.9089 -119.8461 141° Southeast 168 193 8,900  Level Oakland Center
Tue 06:31:05 PM 36.8717 -119.8094 142° Southeast 168 193 8,900  Level Oakland Center
Tue 06:32:07 PM 36.8281 -119.7886 159° South 168 193 8,900  Level Oakland Center
Tue 06:33:08 PM 36.7836 -119.7647 157° South 171 197 8,900  Level Oakland Center
Tue 06:34:09 PM 36.7336 -119.7306 151° Southeast 172 198 8,900  Level Oakland Center
Tue 06:35:10 PM 36.6889 -119.7125 162° South 169 194 8,900  Level Oakland Center
Tue 06:36:11 PM 36.6464 -119.6861 154° Southeast 171 197 8,900  Level Oakland Center
Tue 06:37:13 PM 36.6033 -119.6611 155° Southeast 170 196 8,900  Level Oakland Center
Tue 06:38:14 PM 36.5600 -119.6386 157° South 169 194 8,900  Level Oakland Center
Tue 06:39:15 PM 36.5158 -119.6178 159° South 169 194 8,900  Level Oakland Center
Tue 06:40:16 PM 36.4725 -119.5944 157° South 169 194 8,900  Level Oakland Center
Tue 06:41:17 PM 36.4283 -119.5725 158° South 170 196 8,900  Level Oakland Center
Tue 06:42:19 PM 36.3839 -119.5497 158° South 171 197 8,900  Level Oakland Center
Tue 06:43:20 PM 36.3397 -119.5269 157° South 172 198 8,900  Level Oakland Center
Tue 06:44:21 PM 36.2864 -119.4989 157° South 172 198 8,900  Level Oakland Center
Tue 06:45:22 PM 36.2422 -119.4761 157° South 172 198 8,900  Level Oakland Center
Tue 06:46:24 PM 36.1978 -119.4539 158° South 172 198 8,900  Level Oakland Center
Tue 06:47:25 PM 36.1522 -119.4308 158° South 175 201 8,900  Level Oakland Center
Tue 06:48:26 PM 36.1083 -119.4086 158° South 172 198 8,900  Level Oakland Center
Tue 06:49:27 PM 36.0631 -119.3856 158° South 174 200 8,900  Level Oakland Center
Tue 06:50:29 PM 36.0189 -119.3583 154° Southeast 175 201 8,900  Level Oakland Center
Tue 06:51:30 PM 35.9758 -119.3283 151° Southeast 177 204 8,900 49 Level Oakland Center
Tue 06:52:31 PM 35.9303 -119.3042 157° South 176 203 9,000 393 Climbing Oakland Center
Tue 06:53:32 PM 35.8847 -119.2772 154° Southeast 178 205 9,700 829 Climbing Oakland Center
Tue 06:54:34 PM 35.8414 -119.2506 153° Southeast 176 203 10,700 634 Climbing Oakland Center
Tue 06:55:35 PM 35.7875 -119.2203 155° Southeast 176 203 11,000 98 Climbing Oakland Center
Tue 06:56:36 PM 35.7392 -119.1900 153° Southeast 188 216 10,900 -49 Descending Oakland Center
Tue 06:57:37 PM 35.6939 -119.1633 154° Southeast 185 213 10,900 49 Level Oakland Center
Tue 06:58:38 PM 35.6508 -119.1381 154° Southeast 177 204 11,000 55 Climbing Oakland Center
Tue 06:59:26 PM 35.6172 -119.1194 156° South 174 200 11,000  Level Los Angeles Center
Tue 07:00:28 PM 35.5742 -119.0936 154° Southeast 172 198 11,000  Level Los Angeles Center
Tue 07:01:30 PM 35.5394 -119.0725 154° Southeast 173 199 11,000  Level Los Angeles Center
Tue 07:02:32 PM 35.4853 -119.0414 155° Southeast 176 203 11,000  Level Los Angeles Center
Tue 07:03:34 PM 35.4403 -119.0156 155° Southeast 177 204 11,000  Level Los Angeles Center
Tue 07:04:36 PM 35.3872 -118.9825 153° Southeast 179 206 11,000  Level Los Angeles Center
Tue 07:05:38 PM 35.3425 -118.9583 156° South 177 204 11,000  Level Los Angeles Center
Tue 07:06:40 PM 35.2981 -118.9317 154° Southeast 177 204 11,000  Level Los Angeles Center
Tue 07:07:42 PM 35.2511 -118.9047 155° Southeast 181 208 11,000  Level Los Angeles Center
Tue 07:08:44 PM 35.2042 -118.8769 154° Southeast 186 214 11,000  Level Los Angeles Center
Tue 07:09:46 PM 35.1569 -118.8497 155° Southeast 187 215 11,000  Level Los Angeles Center
Tue 07:10:48 PM 35.1033 -118.8172 154° Southeast 183 211 11,000  Level Los Angeles Center
Tue 07:11:50 PM 35.0550 -118.7900 155° Southeast 190 219 11,000  Level Los Angeles Center
Tue 07:12:52 PM 35.0086 -118.7639 155° Southeast 187 215 11,000 -48 Level Los Angeles Center
Tue 07:13:54 PM 34.9628 -118.7367 154° Southeast 184 212 10,900 -48 Descending Los Angeles Center
Tue 07:14:56 PM 34.9158 -118.7092 154° Southeast 186 214 10,900 48 Level Los Angeles Center
Tue 07:15:58 PM 34.8669 -118.6819 155° Southeast 188 216 11,000 48 Climbing Los Angeles Center
Tue 07:17:00 PM 34.8222 -118.6544 153° Southeast 181 208 11,000  Level Los Angeles Center
Tue 07:18:02 PM 34.7761 -118.6283 155° Southeast 180 207 11,000 -387 Level Los Angeles Center
Tue 07:19:04 PM 34.7169 -118.5972 157° South 193 222 10,200 -927 Descending Los Angeles Center
Tue 07:20:05 PM 34.6647 -118.5667 154° Southeast 210 242 9,100 -585 Descending Los Angeles Center
Tue 07:21:07 PM 34.6125 -118.5686 182° South 181 208 9,000 -290 Descending Los Angeles Center
Tue 07:22:09 PM 34.5656 -118.5536 165° South 186 214 8,500 -968 Descending Los Angeles Center
Tue 07:23:11 PM 34.5119 -118.5239 155° Southeast 212 244 7,000 -1,210 Descending Los Angeles Center
Tue 07:24:13 PM 34.4617 -118.4922 153° Southeast 204 235 6,000 -1,113 Descending Los Angeles Center
Tue 07:25:15 PM 34.4017 -118.4606 156° South 195 224 4,700 -932 Descending Los Angeles Center
Tue 07:25:56 PM 34.3667 -118.4500 166° South 173 199 4,400 -653 Descending Southern California TRACON
Tue 07:26:56 PM 34.3333 -118.4333 158° South 164 189 3,600 -700 Descending Southern California TRACON
Tue 07:27:56 PM 34.2833 -118.4000 151° Southeast 150 173 3,000 -190 Descending Southern California TRACON
Tue 07:29:02 PM 34.2833 -118.3667 90° East 122 140 3,200  Climbing Southern California TRACON
Tue 07:29:23 PM 34.2714 -118.3644 171° South 136 157 3,000 -940 Descending Los Angeles Center
Tue 07:30:25 PM 34.2417 -118.3678 185° South 121 139 1,900 -919 Descending Los Angeles Center
Tue 07:31:27 PM 34.2072 -118.3617 172° South 115 132 1,100 -774 Descending Los Angeles Center
Tue 07:33:00 PM 34.2000 -118.3500 90° East  Level FlightAware Approximate

Login

Don't have an account? Register now (free) for customized features, flight alerts, and more!